Time;durP1;ratioP1;P1;durP2;ratioP2;P2;SDS_P1;SDS_P2;PMS_P1;PMS_P2;Temp;Humidity;BMP_temperature;BMP_pressure;BME280_temperature;BME280_humidity;BME280_pressure;Samples;Min_cycle;Max_cycle;Signal;HPM_P1;HPM_P2
2022/05/16 00:01:53;;;;;;;0.00;0.00;;;12.60;99.90;;;;;;5073529;28;20021;-82
2022/05/16 00:04:20;;;;;;;0.00;0.00;;;12.60;99.90;;;;;;5057439;28;20036;-81
2022/05/16 00:06:54;;;;;;;0.00;0.00;;;12.70;99.90;;;;;;5070777;28;20032;-81
2022/05/16 00:09:23;;;;;;;0.00;0.00;;;12.80;99.90;;;;;;5074165;28;20024;-84
2022/05/16 00:11:51;;;;;;;0.00;0.00;;;13.10;99.90;;;;;;5056743;28;20019;-81
2022/05/16 00:14:18;;;;;;;0.00;0.00;;;13.40;99.90;;;;;;5074611;28;20036;-80
2022/05/16 00:16:44;;;;;;;0.00;0.00;;;13.60;99.90;;;;;;5051767;28;20025;-83
2022/05/16 00:19:10;;;;;;;0.00;0.00;;;13.70;99.90;;;;;;5073723;28;20059;-83
2022/05/16 00:21:37;;;;;;;0.05;0.05;;;13.70;99.90;;;;;;5070634;28;20025;-83
2022/05/16 00:24:03;;;;;;;0.00;0.00;;;13.80;99.90;;;;;;5072308;28;20028;-83
2022/05/16 00:26:29;;;;;;;0.00;0.00;;;13.80;99.90;;;;;;5073373;28;20078;-83
2022/05/16 00:28:55;;;;;;;0.00;0.00;;;14.00;99.90;;;;;;5073916;28;20035;-83
2022/05/16 00:31:24;;;;;;;0.00;0.00;;;14.40;99.90;;;;;;5074058;28;20040;-84
2022/05/16 00:33:52;;;;;;;0.00;0.00;;;14.50;99.90;;;;;;5073411;28;20075;-84
2022/05/16 00:36:30;;;;;;;0.00;0.00;;;14.80;99.90;;;;;;5072557;28;20052;-85
2022/05/16 00:39:05;;;;;;;0.00;0.00;;;15.30;99.90;;;;;;5049917;28;20356;-85
2022/05/16 00:41:57;;;;;;;0.00;0.00;;;16.10;99.90;;;;;;5061728;28;20505;-86
2022/05/16 00:44:26;;;;;;;0.00;0.00;;;17.20;99.90;;;;;;5056015;28;20129;-84
2022/05/16 00:47:16;;;;;;;0.00;0.00;;;17.90;99.90;;;;;;5046819;28;20479;-85
2022/05/16 00:49:48;;;;;;;0.00;0.00;;;18.50;99.90;;;;;;5050959;28;20021;-83
2022/05/16 00:52:24;;;;;;;0.20;0.20;;;19.50;99.90;;;;;;5054206;28;20033;-80
2022/05/16 00:55:21;;;;;;;0.00;0.00;;;20.00;99.90;;;;;;5038049;28;20064;-82
2022/05/16 00:57:53;;;;;;;0.00;0.00;;;21.10;99.90;;;;;;5053146;28;20025;-82
2022/05/16 01:00:22;;;;;;;0.00;0.00;;;21.70;99.90;;;;;;5054177;28;20104;-82
2022/05/16 01:05:39;;;;;;;0.00;0.00;;;22.20;99.90;;;;;;5048077;28;20063;-83
2022/05/16 01:08:14;;;;;;;0.00;0.00;;;22.80;99.90;;;;;;5054286;28;20467;-82
2022/05/16 01:10:40;;;;;;;0.00;0.00;;;23.50;99.90;;;;;;5052273;28;20028;-83
2022/05/16 01:13:11;;;;;;;0.00;0.00;;;23.70;96.50;;;;;;5041220;28;20063;-83
2022/05/16 01:15:42;;;;;;;0.00;0.00;;;23.70;93.90;;;;;;5049583;28;20057;-82
2022/05/16 01:18:10;;;;;;;0.00;0.00;;;23.80;93.70;;;;;;5035406;28;20032;-80
2022/05/16 01:21:13;;;;;;;0.00;0.00;;;23.40;93.60;;;;;;5061604;28;20013;-83
2022/05/16 01:23:52;;;;;;;0.00;0.00;;;23.20;92.80;;;;;;5077271;28;20538;-83
2022/05/16 01:26:26;;;;;;;8.13;7.43;;;23.40;92.80;;;;;;5037860;28;20048;-82
2022/05/16 01:28:54;;;;;;;0.00;0.00;;;23.50;92.10;;;;;;5050593;28;20017;-83
2022/05/16 01:31:23;;;;;;;0.00;0.00;;;23.10;92.30;;;;;;5052772;28;20403;-83
2022/05/16 01:33:49;;;;;;;0.10;0.10;;;23.30;90.60;;;;;;5043530;28;20033;-83
2022/05/16 01:36:21;;;;;;;0.00;0.00;;;23.80;90.60;;;;;;5062214;28;20039;-83
2022/05/16 01:38:56;;;;;;;0.00;0.00;;;23.80;90.80;;;;;;5039201;28;20497;-83
2022/05/16 01:41:25;;;;;;;0.00;0.00;;;23.70;89.30;;;;;;5055857;28;20021;-83
2022/05/16 01:43:55;;;;;;;0.05;0.05;;;22.90;90.20;;;;;;5041721;28;20059;-84
2022/05/16 01:46:32;;;;;;;0.10;0.10;;;23.20;90.40;;;;;;5052161;28;20455;-82
2022/05/16 01:48:58;;;;;;;0.32;0.32;;;23.30;91.30;;;;;;5068270;28;20025;-81
2022/05/16 01:51:24;;;;;;;0.00;0.00;;;23.70;86.00;;;;;;5071537;28;20080;-82
2022/05/16 01:53:54;;;;;;;0.00;0.00;;;24.10;83.40;;;;;;5080471;28;20462;-83
2022/05/16 01:56:20;;;;;;;0.00;0.00;;;24.70;80.80;;;;;;5079809;28;20020;-83
2022/05/16 01:58:47;;;;;;;0.00;0.00;;;24.80;76.00;;;;;;5073866;28;20429;-83
2022/05/16 02:01:14;;;;;;;0.32;0.17;;;25.30;73.00;;;;;;5053138;28;20039;-83
2022/05/16 02:03:43;;;;;;;0.10;0.10;;;25.70;72.90;;;;;;5069213;28;20016;-82
2022/05/16 02:06:09;;;;;;;0.20;0.17;;;24.50;76.00;;;;;;5072491;28;20043;-83
2022/05/16 02:08:42;;;;;;;0.80;0.80;;;24.70;75.00;;;;;;5074491;28;20032;-86
2022/05/16 02:11:09;;;;;;;0.10;0.10;;;25.00;74.80;;;;;;5076314;28;20459;-84
2022/05/16 02:13:40;;;;;;;2.05;1.52;;;25.30;76.30;;;;;;5070492;28;20037;-84
2022/05/16 02:16:09;;;;;;;6.25;5.78;;;24.30;85.00;;;;;;5069621;28;20028;-83
2022/05/16 02:18:36;;;;;;;2.92;1.95;;;24.00;86.80;;;;;;5069484;28;20368;-83
2022/05/16 02:27:15;;;;;;;0.05;0.05;;;24.10;89.80;;;;;;5067242;28;20518;-84
2022/05/16 02:29:43;;;;;;;1.85;1.05;;;23.70;90.10;;;;;;5043990;28;20082;-84
2022/05/16 02:32:10;;;;;;;0.55;0.55;;;23.40;91.50;;;;;;5074087;28;20025;-84
2022/05/16 02:34:45;;;;;;;1.00;0.75;;;24.40;88.20;;;;;;5050295;28;20028;-84
2022/05/16 02:37:35;;;;;;;0.45;0.45;;;23.20;92.60;;;;;;5069751;28;20029;-84
2022/05/16 02:40:11;;;;;;;0.10;0.10;;;24.00;92.60;;;;;;5065271;28;20041;-84
2022/05/16 02:42:37;;;;;;;0.52;0.40;;;24.50;86.70;;;;;;5066717;28;20439;-84
2022/05/16 02:45:06;;;;;;;2.25;2.08;;;24.20;89.70;;;;;;5069501;28;20044;-85
2022/05/16 02:48:18;;;;;;;0.17;0.08;;;24.60;85.80;;;;;;5070368;28;20025;-83
2022/05/16 02:50:45;;;;;;;2.47;2.33;;;24.80;82.00;;;;;;5044372;28;20036;-83
2022/05/16 02:53:14;;;;;;;0.65;0.65;;;25.00;78.70;;;;;;5050871;28;20078;-82
2022/05/16 02:56:01;;;;;;;0.30;0.30;;;24.30;83.40;;;;;;5052440;28;20486;-84
2022/05/16 02:58:30;;;;;;;0.00;0.00;;;24.70;82.90;;;;;;5053591;28;20082;-83
2022/05/16 03:00:59;;;;;;;0.00;0.00;;;26.30;78.90;;;;;;5054910;28;20035;-83
2022/05/16 03:03:25;;;;;;;0.10;0.10;;;26.30;72.60;;;;;;5054344;28;20033;-84
2022/05/16 03:05:51;;;;;;;0.38;0.38;;;24.50;74.70;;;;;;5068930;28;20025;-84
2022/05/16 03:08:42;;;;;;;1.33;1.25;;;24.80;78.10;;;;;;5069481;28;20067;-84
2022/05/16 03:11:12;;;;;;;0.30;0.30;;;25.60;72.90;;;;;;5050783;28;20131;-84
2022/05/16 03:13:48;;;;;;;1.55;1.50;;;26.00;69.30;;;;;;5075410;28;20055;-84
2022/05/16 03:16:27;;;;;;;0.17;0.17;;;25.50;70.60;;;;;;5070949;28;20040;-83
2022/05/16 03:19:07;;;;;;;;;;;;;;;;;;;;;
2022/05/16 03:21:44;;;;;;;0.00;0.00;;;25.10;72.40;;;;;;5071119;28;20021;-83
2022/05/16 03:25:07;;;;;;;0.68;0.68;;;24.60;72.80;;;;;;5049978;28;20424;-83
2022/05/16 03:27:41;;;;;;;6.22;1.17;;;24.60;73.40;;;;;;5048781;28;20032;-83
2022/05/16 03:33:18;;;;;;;0.15;0.15;;;25.10;70.60;;;;;;5024690;28;20626;-82
2022/05/16 03:36:27;;;;;;;0.00;0.00;;;25.30;69.10;;;;;;5067067;28;20048;-83
2022/05/16 03:42:20;;;;;;;0.82;0.77;;;23.00;76.90;;;;;;5072729;28;20044;-84
2022/05/16 03:44:51;;;;;;;0.10;0.10;;;22.00;90.00;;;;;;5056021;28;20032;-82
2022/05/16 03:47:20;;;;;;;0.22;0.22;;;21.70;92.20;;;;;;5055393;28;20053;-83
2022/05/16 03:49:52;;;;;;;0.50;0.50;;;21.80;95.90;;;;;;5054585;28;20162;-84
2022/05/16 03:52:44;;;;;;;1.10;1.00;;;21.60;97.40;;;;;;5066298;28;20116;-83
2022/05/16 03:55:15;;;;;;;0.00;0.00;;;22.20;93.40;;;;;;5073811;28;20056;-84
2022/05/16 03:57:44;;;;;;;6.05;5.50;;;22.10;93.70;;;;;;5072979;28;20033;-84
2022/05/16 04:00:19;;;;;;;7.80;3.03;;;22.20;94.20;;;;;;5071024;28;20037;-83
2022/05/16 04:02:49;;;;;;;0.57;0.38;;;22.20;93.60;;;;;;5051616;28;20067;-83
2022/05/16 04:05:24;;;;;;;7.40;3.78;;;22.40;92.60;;;;;;5075931;28;20036;-82
2022/05/16 04:07:57;;;;;;;0.20;0.20;;;22.50;91.80;;;;;;5056569;28;20021;-82
2022/05/16 04:10:24;;;;;;;0.75;0.75;;;21.60;95.00;;;;;;5077397;28;20054;-85
2022/05/16 04:12:51;;;;;;;0.00;0.00;;;21.90;96.50;;;;;;5055712;28;20027;-84
2022/05/16 04:15:18;;;;;;;0.00;0.00;;;21.80;99.50;;;;;;5069752;28;20111;-84
2022/05/16 04:17:45;;;;;;;5.05;2.17;;;21.70;97.50;;;;;;5049149;28;20029;-83
2022/05/16 04:20:12;;;;;;;2.95;1.67;;;22.10;96.20;;;;;;5053832;28;20442;-84
2022/05/16 04:22:39;;;;;;;1.92;1.45;;;22.20;92.70;;;;;;5048008;28;20028;-83
2022/05/16 04:25:09;;;;;;;0.08;0.08;;;22.30;90.90;;;;;;5049964;28;20029;-83
2022/05/16 04:27:39;;;;;;;1.15;1.05;;;22.10;92.80;;;;;;5067970;28;20364;-84
2022/05/16 04:30:38;;;;;;;3.67;1.73;;;22.20;95.00;;;;;;5071644;28;20410;-84
2022/05/16 04:33:08;;;;;;;5.85;1.83;;;22.60;91.80;;;;;;5050535;28;20037;-84
2022/05/16 04:35:50;;;;;;;3.08;2.35;;;22.70;91.10;;;;;;5055233;28;20032;-83
2022/05/16 04:38:18;;;;;;;5.10;1.13;;;22.70;90.60;;;;;;5051369;28;20021;-83
2022/05/16 04:43:29;;;;;;;0.55;0.52;;;22.20;94.90;;;;;;5066659;28;20039;-84
2022/05/16 04:46:00;;;;;;;0.68;0.38;;;22.20;93.40;;;;;;5068749;28;20081;-85
2022/05/16 04:48:33;;;;;;;1.35;1.20;;;22.40;91.80;;;;;;5070635;28;20392;-83
2022/05/16 04:50:59;;;;;;;2.85;1.33;;;22.50;91.40;;;;;;5057644;28;20024;-86
2022/05/16 04:53:34;;;;;;;0.32;0.32;;;22.70;91.80;;;;;;5051817;28;20457;-84
2022/05/16 04:56:00;;;;;;;0.05;0.05;;;22.90;91.10;;;;;;5067108;28;20060;-84
2022/05/16 04:58:27;;;;;;;0.00;0.00;;;22.60;92.30;;;;;;5052168;28;20447;-86
2022/05/16 05:00:54;;;;;;;5.15;1.98;;;22.60;91.70;;;;;;5071976;28;20088;-82
2022/05/16 05:03:20;;;;;;;0.95;0.95;;;22.80;86.00;;;;;;5055575;28;20348;-83
2022/05/16 05:05:48;;;;;;;0.20;0.17;;;22.70;85.90;;;;;;5070701;28;20351;-84
2022/05/16 05:08:14;;;;;;;0.75;0.75;;;22.40;85.20;;;;;;5070511;28;20103;-84
2022/05/16 05:16:21;;;;;;;10.32;3.92;;;22.90;84.80;;;;;;5054055;28;20036;-83
2022/05/16 05:18:48;;;;;;;0.00;0.00;;;22.80;80.00;;;;;;5072520;28;20086;-82
2022/05/16 05:21:14;;;;;;;0.10;0.10;;;22.90;79.90;;;;;;5073468;28;20122;-84
2022/05/16 05:23:40;;;;;;;0.00;0.00;;;23.10;79.60;;;;;;5069680;28;20039;-83
2022/05/16 05:26:08;;;;;;;0.00;0.00;;;23.10;82.10;;;;;;5089209;28;20047;-83
2022/05/16 05:28:35;;;;;;;0.00;0.00;;;22.80;78.20;;;;;;5088916;28;20048;-82
2022/05/16 05:31:01;;;;;;;0.00;0.00;;;22.90;80.90;;;;;;5089930;28;20040;-82
2022/05/16 05:33:29;;;;;;;0.10;0.10;;;23.10;77.30;;;;;;5071444;28;20090;-83
2022/05/16 05:35:55;;;;;;;0.00;0.00;;;23.20;77.60;;;;;;5075387;28;20051;-84
2022/05/16 05:38:23;;;;;;;0.05;0.05;;;23.40;77.60;;;;;;5050745;28;20055;-84
2022/05/16 05:40:52;;;;;;;1.85;0.75;;;23.60;78.00;;;;;;5072629;28;20020;-84
2022/05/16 05:43:18;;;;;;;2.67;2.58;;;23.60;74.90;;;;;;5069970;28;20548;-85
2022/05/16 05:45:45;;;;;;;0.55;0.25;;;23.60;77.60;;;;;;5070617;28;20016;-83
2022/05/16 05:48:11;;;;;;;5.57;2.00;;;23.80;77.20;;;;;;5057603;28;20020;-84
2022/05/16 05:50:38;;;;;;;0.43;0.43;;;23.40;77.70;;;;;;5048893;28;20116;-84
2022/05/16 05:53:06;;;;;;;0.15;0.15;;;23.30;77.60;;;;;;5053443;28;20044;-84
2022/05/16 05:55:34;;;;;;;0.03;0.03;;;23.20;80.40;;;;;;5054450;28;20035;-83
2022/05/16 05:58:04;;;;;;;0.00;0.00;;;23.20;77.90;;;;;;5068655;28;20036;-83
2022/05/16 06:00:30;;;;;;;0.00;0.00;;;23.20;77.00;;;;;;5049932;28;20020;-84
2022/05/16 06:02:56;;;;;;;0.00;0.00;;;23.50;76.50;;;;;;5054697;28;20051;-83
2022/05/16 06:05:23;;;;;;;0.57;0.32;;;23.70;75.30;;;;;;5066415;28;20032;-83
2022/05/16 06:07:51;;;;;;;0.80;0.55;;;23.90;71.80;;;;;;5070746;28;20033;-83
2022/05/16 06:10:18;;;;;;;0.10;0.10;;;23.60;74.40;;;;;;5054063;28;20591;-83
2022/05/16 06:12:44;;;;;;;0.00;0.00;;;23.60;72.10;;;;;;5068150;28;20025;-84
2022/05/16 06:15:14;;;;;;;3.28;3.17;;;23.80;70.00;;;;;;5074748;28;20066;-83
2022/05/16 06:17:46;;;;;;;4.22;0.88;;;23.90;70.50;;;;;;5064589;28;20024;-83
2022/05/16 06:20:15;;;;;;;0.00;0.00;;;23.80;69.00;;;;;;5076062;28;20024;-83
2022/05/16 06:22:42;;;;;;;0.47;0.20;;;23.90;70.90;;;;;;5069063;28;20028;-83
2022/05/16 06:27:58;;;;;;;0.00;0.00;;;24.20;70.50;;;;;;5071749;28;21078;-83
2022/05/16 06:30:24;;;;;;;3.92;3.53;;;24.00;68.80;;;;;;5070068;28;20012;-83
2022/05/16 06:32:50;;;;;;;0.00;0.00;;;24.00;67.60;;;;;;5069503;28;20040;-84
2022/05/16 06:35:17;;;;;;;0.85;0.15;;;24.10;69.10;;;;;;5057084;28;20103;-84
2022/05/16 06:37:45;;;;;;;0.10;0.10;;;23.80;68.00;;;;;;5074560;28;20030;-83
2022/05/16 06:40:13;;;;;;;0.08;0.08;;;23.70;68.80;;;;;;5069838;28;20075;-81
2022/05/16 06:42:49;;;;;;;0.00;0.00;;;24.10;69.30;;;;;;5064657;28;20427;-84
2022/05/16 06:45:19;;;;;;;0.35;0.20;;;23.90;70.10;;;;;;5069869;28;20029;-84
2022/05/16 06:47:45;;;;;;;0.17;0.17;;;24.00;72.60;;;;;;5051325;28;20028;-85
2022/05/16 06:50:32;;;;;;;0.52;0.25;;;24.40;69.40;;;;;;5068678;28;20029;-84
2022/05/16 06:52:59;;;;;;;0.00;0.00;;;24.20;66.00;;;;;;5049521;28;20052;-85
2022/05/16 06:55:26;;;;;;;0.15;0.15;;;24.20;66.20;;;;;;5032014;28;20033;-85
2022/05/16 06:57:56;;;;;;;0.22;0.22;;;24.40;67.70;;;;;;5025312;28;20095;-85
2022/05/16 07:00:22;;;;;;;0.30;0.30;;;24.50;66.30;;;;;;5025990;28;20037;-84
2022/05/16 07:02:52;;;;;;;0.77;0.52;;;24.60;65.90;;;;;;5044799;28;20356;-85
2022/05/16 07:05:34;;;;;;;0.10;0.10;;;24.80;67.20;;;;;;5049847;28;20028;-84
2022/05/16 07:08:58;;;;;;;;;;;;;;;;;;;;;
2022/05/16 07:11:37;;;;;;;0.00;0.00;;;24.40;66.30;;;;;;5054718;28;20390;-84
2022/05/16 07:14:06;;;;;;;0.08;0.08;;;24.40;69.60;;;;;;5035732;28;20099;-84
2022/05/16 07:16:34;;;;;;;3.88;1.27;;;24.30;68.30;;;;;;5037829;28;20467;-85
2022/05/16 07:19:31;;;;;;;0.15;0.15;;;24.40;67.10;;;;;;5032564;28;20079;-84
2022/05/16 07:22:24;;;;;;;13.55;5.00;;;24.00;69.20;;;;;;5034359;28;20041;-84
2022/05/16 07:24:55;;;;;;;2.35;1.05;;;24.30;67.20;;;;;;5054113;28;20036;-84
2022/05/16 07:30:28;;;;;;;0.00;0.00;;;24.50;65.80;;;;;;5054748;28;20037;-85
2022/05/16 07:33:04;;;;;;;0.00;0.00;;;24.90;62.00;;;;;;5043671;28;20028;-85
2022/05/16 07:35:36;;;;;;;1.05;0.43;;;25.10;60.00;;;;;;5050108;28;20043;-85
2022/05/16 07:41:06;;;;;;;0.00;0.00;;;24.80;58.80;;;;;;5069197;28;20025;-85
2022/05/16 07:43:35;;;;;;;0.30;0.30;;;24.60;57.00;;;;;;5053220;28;20040;-86
2022/05/16 07:46:48;;;;;;;0.10;0.10;;;24.80;57.60;;;;;;5049386;28;20026;-86
2022/05/16 07:49:45;;;;;;;0.00;0.00;;;24.90;54.80;;;;;;5002603;28;20045;-86
2022/05/16 07:52:46;;;;;;;0.40;0.40;;;25.30;54.50;;;;;;5033052;28;20047;-85
2022/05/16 07:59:10;;;;;;;0.00;0.00;;;25.80;52.20;;;;;;5047204;28;20411;-86
2022/05/16 08:01:41;;;;;;;0.00;0.00;;;25.80;51.30;;;;;;5035256;28;20167;-87
2022/05/16 08:04:15;;;;;;;0.47;0.32;;;25.60;53.40;;;;;;5055846;28;20108;-84
2022/05/16 08:07:09;;;;;;;0.10;0.10;;;25.20;50.30;;;;;;5062404;28;20132;-85
2022/05/16 08:12:30;;;;;;;0.10;0.00;;;25.10;47.40;;;;;;5049238;28;20031;-85
2022/05/16 08:15:00;;;;;;;0.30;0.30;;;25.40;56.10;;;;;;5045507;28;20025;-86
2022/05/16 08:17:28;;;;;;;0.10;0.10;;;25.70;52.00;;;;;;5030201;28;20065;-86
2022/05/16 08:19:58;;;;;;;0.00;0.00;;;25.60;52.50;;;;;;5050376;28;20032;-86
2022/05/16 08:22:56;;;;;;;0.00;0.00;;;25.50;55.40;;;;;;5034553;28;20123;-85
2022/05/16 08:25:37;;;;;;;0.05;0.05;;;25.70;54.10;;;;;;5055366;28;20021;-87
2022/05/16 08:28:42;;;;;;;0.38;0.38;;;25.90;54.60;;;;;;5044198;28;20089;-84
2022/05/16 08:31:05;;;;;;;0.32;0.32;;;25.50;54.70;;;;;;5066940;28;20037;-85
2022/05/16 08:33:35;;;;;;;0.10;0.10;;;25.70;52.00;;;;;;5033110;28;20064;-85
2022/05/16 08:42:05;;;;;;;0.00;0.00;;;25.70;53.00;;;;;;5052804;28;20044;-85
2022/05/16 08:44:43;;;;;;;0.00;0.00;;;25.40;55.00;;;;;;5050296;28;20037;-85
2022/05/16 08:47:34;;;;;;;0.00;0.00;;;25.50;54.70;;;;;;5053567;28;20060;-85
2022/05/16 08:50:18;;;;;;;0.05;0.05;;;26.00;54.40;;;;;;5053272;28;20083;-86
2022/05/16 08:53:24;;;;;;;0.00;0.00;;;25.90;52.70;;;;;;5032828;28;20033;-87
2022/05/16 08:55:57;;;;;;;0.00;0.00;;;26.20;50.90;;;;;;4989133;28;20063;-87
2022/05/16 08:58:51;;;;;;;0.00;0.00;;;26.00;50.10;;;;;;5034673;28;20033;-87
2022/05/16 09:01:25;;;;;;;0.00;0.00;;;25.80;49.70;;;;;;5048484;28;20021;-84
2022/05/16 09:04:03;;;;;;;0.00;0.00;;;25.40;43.70;;;;;;5025944;28;20557;-85
2022/05/16 09:06:40;;;;;;;0.00;0.00;;;25.60;49.80;;;;;;5024540;28;20028;-86
2022/05/16 09:09:22;;;;;;;0.00;0.00;;;26.10;51.60;;;;;;5026896;28;20025;-87
2022/05/16 09:12:04;;;;;;;0.00;0.00;;;26.20;53.10;;;;;;5029218;28;20029;-86
2022/05/16 09:14:36;;;;;;;0.00;0.00;;;25.70;52.40;;;;;;5049551;28;20076;-85
2022/05/16 09:17:32;;;;;;;0.00;0.00;;;25.60;53.50;;;;;;5046684;28;20025;-85
2022/05/16 09:20:20;;;;;;;0.00;0.00;;;25.90;53.20;;;;;;5020911;28;20414;-85
2022/05/16 09:23:31;;;;;;;0.00;0.00;;;26.30;51.70;;;;;;5046410;28;20271;-85
2022/05/16 09:26:15;;;;;;;0.00;0.00;;;26.50;51.30;;;;;;5027803;28;20060;-85
2022/05/16 09:28:55;;;;;;;0.00;0.00;;;26.50;49.40;;;;;;5044639;28;20021;-85
2022/05/16 09:32:05;;;;;;;0.00;0.00;;;26.30;49.60;;;;;;5042423;28;20017;-85
2022/05/16 09:34:40;;;;;;;0.00;0.00;;;26.40;48.90;;;;;;5050045;28;20025;-86
2022/05/16 09:37:28;;;;;;;0.00;0.00;;;26.30;50.10;;;;;;5026387;28;20463;-85
2022/05/16 09:39:57;;;;;;;0.10;0.10;;;26.50;49.40;;;;;;5046903;28;20032;-85
2022/05/16 09:42:57;;;;;;;;;;;;;;;;;;;;;
2022/05/16 09:45:28;;;;;;;0.00;0.00;;;26.50;48.30;;;;;;5046037;28;20051;-85
2022/05/16 09:48:52;;;;;;;;;;;;;;;;;;;;;
2022/05/16 09:52:26;;;;;;;0.10;0.10;;;25.90;48.70;;;;;;4967039;28;20044;-85
2022/05/16 09:55:33;;;;;;;0.05;0.05;;;25.70;49.50;;;;;;4971168;28;20042;-84
2022/05/16 10:06:03;;;;;;;0.00;0.00;;;25.60;53.40;;;;;;4998720;28;20048;-85
2022/05/16 10:09:19;;;;;;;;;;;;;;;;;;;;;
2022/05/16 10:15:44;;;;;;;;;;;;;;;;;;;;;
2022/05/16 10:18:16;;;;;;;20.17;2.47;;;25.80;47.10;;;;;;5034964;28;20037;-85
2022/05/16 10:20:48;;;;;;;0.00;0.00;;;25.70;50.00;;;;;;5064292;28;21419;-85
2022/05/16 10:23:30;;;;;;;0.40;0.08;;;25.80;49.20;;;;;;5049006;28;20033;-84
2022/05/16 10:26:04;;;;;;;0.25;0.25;;;25.70;49.70;;;;;;5067074;28;20035;-85
2022/05/16 10:28:36;;;;;;;0.13;0.13;;;25.60;47.60;;;;;;5069935;28;20023;-84
2022/05/16 10:34:07;;;;;;;0.15;0.15;;;25.70;49.60;;;;;;5068049;28;20032;-85
2022/05/16 10:36:39;;;;;;;0.00;0.00;;;25.50;48.80;;;;;;5073326;28;20114;-83
2022/05/16 10:39:35;;;;;;;;;;;;;;;;;;;;;
2022/05/16 10:42:46;;;;;;;0.30;0.13;;;25.70;50.20;;;;;;5071524;28;20050;-86
2022/05/16 10:45:19;;;;;;;0.00;0.00;;;25.60;50.00;;;;;;5035282;28;20048;-86
2022/05/16 10:48:05;;;;;;;0.00;0.00;;;25.40;50.40;;;;;;5084658;28;20028;-84
2022/05/16 10:51:09;;;;;;;0.00;0.00;;;25.50;51.20;;;;;;5074462;28;20119;-86
2022/05/16 10:53:52;;;;;;;0.00;0.00;;;25.40;49.40;;;;;;5004903;28;20060;-85
2022/05/16 10:57:04;;;;;;;0.00;0.00;;;25.00;49.70;;;;;;5042991;28;20036;-86
2022/05/16 10:59:42;;;;;;;0.00;0.00;;;25.00;49.60;;;;;;5047010;28;20029;-87
2022/05/16 11:02:31;;;;;;;0.00;0.00;;;25.10;50.40;;;;;;5051575;28;20040;-87
2022/05/16 11:05:42;;;;;;;;;;;;;;;;;;;;;
2022/05/16 11:12:04;;;;;;;0.43;0.43;;;24.80;49.30;;;;;;5045786;28;20079;-82
2022/05/16 11:14:57;;;;;;;0.45;0.45;;;24.90;49.40;;;;;;5052312;28;20116;-82
2022/05/16 11:17:54;;;;;;;0.00;0.00;;;24.80;49.40;;;;;;5031623;28;20057;-79
2022/05/16 11:20:37;;;;;;;0.00;0.00;;;25.00;49.20;;;;;;5053334;28;20021;-83
2022/05/16 11:23:18;;;;;;;0.00;0.00;;;24.80;47.80;;;;;;5057863;28;20648;-85
2022/05/16 11:29:36;;;;;;;0.00;0.00;;;25.10;47.70;;;;;;4963287;28;20521;-85
2022/05/16 11:32:34;;;;;;;0.00;0.00;;;25.30;44.50;;;;;;4972233;28;20031;-84
2022/05/16 11:35:20;;;;;;;0.00;0.00;;;25.20;44.10;;;;;;5021698;28;20045;-84
2022/05/16 11:38:35;;;;;;;0.00;0.00;;;25.00;43.10;;;;;;5051750;28;20503;-84
2022/05/16 11:41:23;;;;;;;0.00;0.00;;;24.90;43.10;;;;;;4988960;28;20428;-82
2022/05/16 11:44:04;;;;;;;0.10;0.10;;;24.70;43.30;;;;;;5049541;28;20025;-83
2022/05/16 11:46:52;;;;;;;0.00;0.00;;;24.70;45.10;;;;;;5030271;28;20029;-82
2022/05/16 11:49:39;;;;;;;0.00;0.00;;;24.60;45.20;;;;;;5031259;28;20115;-82
2022/05/16 11:52:34;;;;;;;0.00;0.00;;;24.50;45.50;;;;;;5049314;28;20032;-82
2022/05/16 12:01:21;;;;;;;0.00;0.00;;;24.70;43.80;;;;;;5069097;28;20044;-84
2022/05/16 12:04:16;;;;;;;0.00;0.00;;;24.60;43.40;;;;;;5056556;28;20041;-83
2022/05/16 12:07:41;;;;;;;0.17;0.17;;;24.50;43.70;;;;;;5043468;28;20029;-81
2022/05/16 12:10:10;;;;;;;5.28;4.85;;;24.50;43.80;;;;;;5017885;28;20062;-83
2022/05/16 12:12:40;;;;;;;0.00;0.00;;;24.60;43.80;;;;;;5067408;28;20028;-83
2022/05/16 12:15:25;;;;;;;0.00;0.00;;;24.60;42.50;;;;;;5069036;28;20021;-82
2022/05/16 12:17:59;;;;;;;0.00;0.00;;;24.50;44.20;;;;;;5073420;28;20027;-82
2022/05/16 12:20:44;;;;;;;0.00;0.00;;;24.40;44.00;;;;;;5054314;28;20025;-83
2022/05/16 12:23:14;;;;;;;0.03;0.03;;;24.40;43.90;;;;;;5074255;28;20051;-82
2022/05/16 12:25:42;;;;;;;0.00;0.00;;;24.40;44.60;;;;;;5077426;28;20051;-82
2022/05/16 12:28:16;;;;;;;0.10;0.10;;;24.50;44.30;;;;;;5068659;28;20107;-82
2022/05/16 12:30:55;;;;;;;0.00;0.00;;;24.50;45.30;;;;;;5072346;28;20031;-84
2022/05/16 12:33:43;;;;;;;0.10;0.10;;;24.40;45.40;;;;;;5081058;28;20028;-82
2022/05/16 12:36:17;;;;;;;0.00;0.00;;;24.40;46.20;;;;;;5084355;28;20052;-83
2022/05/16 12:39:36;;;;;;;0.00;0.00;;;24.50;46.30;;;;;;5079077;28;20005;-81
2022/05/16 12:42:27;;;;;;;0.30;0.30;;;24.40;47.30;;;;;;5040671;28;20034;-81
2022/05/16 12:44:59;;;;;;;0.00;0.00;;;24.50;45.90;;;;;;5030942;28;20133;-82
2022/05/16 12:47:38;;;;;;;0.00;0.00;;;24.50;44.00;;;;;;5055269;28;20037;-81
2022/05/16 12:50:32;;;;;;;0.00;0.00;;;24.60;43.90;;;;;;5044829;28;20058;-82
2022/05/16 12:53:25;;;;;;;0.10;0.10;;;24.60;44.30;;;;;;5064993;28;21250;-82
2022/05/16 12:56:01;;;;;;;0.00;0.00;;;24.40;44.80;;;;;;5067467;28;20035;-82
2022/05/16 12:58:59;;;;;;;0.00;0.00;;;24.20;45.70;;;;;;5064132;28;20335;-81
2022/05/16 13:01:40;;;;;;;0.00;0.00;;;24.20;47.70;;;;;;5068153;28;20028;-82
2022/05/16 13:04:36;;;;;;;0.32;0.32;;;24.20;47.50;;;;;;5067487;28;20099;-81
2022/05/16 13:07:19;;;;;;;0.00;0.00;;;24.20;48.30;;;;;;5033542;28;20032;-80
2022/05/16 13:10:06;;;;;;;0.00;0.00;;;23.90;46.80;;;;;;5085055;28;20099;-81
2022/05/16 13:13:03;;;;;;;0.00;0.00;;;23.90;46.60;;;;;;5067533;28;20095;-81
2022/05/16 13:15:37;;;;;;;0.00;0.00;;;24.00;46.40;;;;;;5068078;28;20021;-80
2022/05/16 13:18:11;;;;;;;0.00;0.00;;;23.80;46.90;;;;;;5061936;28;20056;-81
2022/05/16 13:20:51;;;;;;;0.00;0.00;;;23.80;46.50;;;;;;5068415;28;20039;-83
2022/05/16 13:23:20;;;;;;;0.00;0.00;;;23.70;47.00;;;;;;5065121;28;20036;-82
2022/05/16 13:31:33;;;;;;;0.00;0.00;;;23.50;48.20;;;;;;5071520;28;20020;-81
2022/05/16 13:34:01;;;;;;;0.00;0.00;;;23.50;49.20;;;;;;5070774;28;20029;-81
2022/05/16 13:36:28;;;;;;;0.00;0.00;;;23.40;50.80;;;;;;5054960;28;20402;-82
2022/05/16 13:39:02;;;;;;;0.90;0.90;;;23.50;50.70;;;;;;5035294;28;20033;-82
2022/05/16 13:41:32;;;;;;;0.00;0.00;;;23.60;49.40;;;;;;5048549;28;20059;-82
2022/05/16 13:43:58;;;;;;;0.00;0.00;;;23.50;49.90;;;;;;5067879;28;20082;-82
2022/05/16 13:46:27;;;;;;;0.00;0.00;;;23.30;52.10;;;;;;5051579;28;20406;-83
2022/05/16 13:49:06;;;;;;;0.00;0.00;;;23.00;50.80;;;;;;5068938;28;20017;-82
2022/05/16 13:51:33;;;;;;;0.00;0.00;;;23.10;50.60;;;;;;5059836;28;20025;-82
2022/05/16 13:54:05;;;;;;;0.00;0.00;;;23.00;52.00;;;;;;5060262;28;20119;-82
2022/05/16 13:56:47;;;;;;;0.00;0.00;;;23.00;52.30;;;;;;5069854;28;20028;-82
2022/05/16 13:59:14;;;;;;;0.00;0.00;;;22.80;51.90;;;;;;5073828;28;20024;-83
2022/05/16 14:01:50;;;;;;;0.00;0.00;;;22.70;53.40;;;;;;5070554;28;20031;-82
2022/05/16 14:04:21;;;;;;;0.00;0.00;;;22.60;52.70;;;;;;5069735;28;20055;-82
2022/05/16 14:06:53;;;;;;;0.00;0.00;;;22.50;53.50;;;;;;5070259;28;20031;-83
2022/05/16 14:09:25;;;;;;;0.00;0.00;;;22.50;54.20;;;;;;5050903;28;20028;-82
2022/05/16 14:11:54;;;;;;;0.00;0.00;;;22.40;54.60;;;;;;5045063;28;20021;-83
2022/05/16 14:14:24;;;;;;;0.00;0.00;;;22.40;53.40;;;;;;5066702;28;20041;-83
2022/05/16 14:16:54;;;;;;;0.00;0.00;;;22.30;53.30;;;;;;5063273;28;20039;-83
2022/05/16 14:19:41;;;;;;;0.00;0.00;;;22.30;53.40;;;;;;5052345;28;20081;-83
2022/05/16 14:22:12;;;;;;;0.00;0.00;;;22.30;53.50;;;;;;5041945;28;20115;-83
2022/05/16 14:24:48;;;;;;;0.00;0.00;;;22.20;54.00;;;;;;5066968;28;20086;-83
2022/05/16 14:27:38;;;;;;;0.20;0.20;;;22.10;55.20;;;;;;5069744;28;20017;-83
2022/05/16 14:30:13;;;;;;;0.20;0.20;;;21.90;56.10;;;;;;5050614;28;20115;-83
2022/05/16 14:32:49;;;;;;;0.00;0.00;;;21.70;57.50;;;;;;5065410;28;20243;-83
2022/05/16 14:35:30;;;;;;;0.00;0.00;;;21.60;57.90;;;;;;5052555;28;20036;-84
2022/05/16 14:38:04;;;;;;;0.00;0.00;;;21.40;59.80;;;;;;5067365;28;20107;-84
2022/05/16 14:40:49;;;;;;;0.00;0.00;;;21.40;61.20;;;;;;5048276;28;20028;-83
2022/05/16 14:43:38;;;;;;;0.00;0.00;;;21.20;61.70;;;;;;5046321;28;20024;-83
2022/05/16 14:49:13;;;;;;;0.60;0.60;;;20.90;62.10;;;;;;5070770;28;20036;-82
2022/05/16 14:51:43;;;;;;;0.00;0.00;;;20.70;62.90;;;;;;5070388;28;20058;-83
2022/05/16 14:54:20;;;;;;;0.00;0.00;;;20.70;61.70;;;;;;5065283;28;20041;-81
2022/05/16 14:56:47;;;;;;;0.00;0.00;;;20.60;61.70;;;;;;5065905;28;20108;-83
2022/05/16 14:59:15;;;;;;;0.00;0.00;;;20.40;61.60;;;;;;5071415;28;20020;-82
2022/05/16 15:04:26;;;;;;;0.00;0.00;;;20.20;65.60;;;;;;5065999;28;20290;-83
2022/05/16 15:07:17;;;;;;;0.00;0.00;;;20.00;65.90;;;;;;5067040;28;20028;-82
2022/05/16 15:09:46;;;;;;;0.52;0.52;;;20.10;70.10;;;;;;5062541;28;20025;-83
2022/05/16 15:12:16;;;;;;;0.00;0.00;;;20.30;66.50;;;;;;5081203;28;20039;-83